Etusivu
METAR-TAF:

METAR-TAF

Lentoasemat :

Whiting_Field_Naval_Air_Station_South_Airport

Milton, Florida, Yhdysvallat

Leveyspiiri: 30-41-50N, Pituuspiiri: 087-01-12W, korkeus merenpinnasta: 54 m

Tämänhetkinen sää

Tämä raportti tehtiin 36 minuuttia sitten, kello 13.56 UTC
Tuuli 8 kn idästä/koillisesta
Lämpötila 26°C
Kosteus 84%
Ilmanpaine 1015 hPa
Näkyvyys: 16.1 km
Muutamia pilviä 800 ft:n korkeudessa

METAR: KNDZ 061356Z AUTO 07008KT 10SM FEW008 26/23 A2997 RMK AO2 SLP133 T02610228 $

Aika: 09:32 (14:32 UTC)


TAF: puuttuu

Säähavainnot ja -ennusteet yli 4000 lentoasemalta (METAR- ja TAF-raportit).

Käytössä olevat sääasemat on merkitty karttaan keltaisilla ja punaisilla pisteillä.

Aseta hiiri pisteen päälle nähdäksesi sääaseman nimen.

Klikkaa sitten nähdäksesi säähavainnot ja -ennusteet.

Kartan vaihtaminen: klikkaa mustalla rastilla varustettuja vihreitä pisteitä, niin voit zoomata sisään; viivalla varustettua vihreää pistettä, niin voit zoomata ulos tai vihreitä nuolia, niin pääset viereisille kartoille.


METAR-TAF: